Tallahassee, FL

10:56 AM EDT on August 20, 2014 (GMT -0400)
Rickards High School WeatherSTEM | Change Station
CLOSE
Current Station
Personal Weather Station
Location: Tallahassee, FL
Elevation: 138 ft
Nearby Weather Stations

Elev 138 ft 30.41 °N, 84.26 °W | Updated 13 minutes ago

Scattered Clouds
Scattered Clouds
84.2 °F
Feels Like 97 °F
N
1.0
Wind Variable Wind from NW
Gusts 8.0 mph

Today
High -- | Low -- °F
--% Chance of Precip.
Yesterday
High -- | Low -- °F
Precip. -- in
7:06 AM 8:13 PM
Waning Crescent, 21% visible
Pressure 30.09 in
Visibility 10.0 miles
Clouds Few 1200 ft
Scattered Clouds 25000 ft
Heat Index 97 °F
Dew Point 79 °F
Humidity 85%
Rainfall 0.00 in
Snow Depth Not available.
UV 3.9 out of 12
Pollen 6.60 out of 12
Air Quality Not available.
Flu Activity Not available.
METAR KTLH 201353Z 29008KT 10SM FEW012 SCT250 28/24 A3009 RMK AO2 SLP188 T02830239

More Conditions Fewer Conditions

Pressure 30.09 in
Visibility 10.0 miles
Clouds Few 1200 ft
Scattered Clouds 25000 ft
Heat Index 97 °F
Dew Point 79 °F
Humidity 85%
Rainfall 0.00 in
Snow Depth Not available.
UV 3.9 out of 12
Pollen 6.60 out of 12
Air Quality Not available.
Flu Activity Not available.
METAR KTLH 201353Z 29008KT 10SM FEW012 SCT250 28/24 A3009 RMK AO2 SLP188 T02830239

More Conditions Fewer Conditions

10-Day Weather Forecast

Almanac

Astronomy

Aug. 20, 2014 Rise Set
Actual Time 7:06 AM EDT 8:13 PM EDT
Civil Twilight 6:41 AM EDT 8:38 PM EDT
Nautical Twilight 6:12 AM EDT 9:08 PM EDT
Astronomical Twilight 5:41 AM EDT 9:38 PM EDT
Moon 2:53 AM EDT 4:50 PM EDT
Length of Visible Light 13h 56m
Length of Day
13h 06m
Tomorrow will be 1m 40s shorter.
Waning Crescent, 21% of the Moon is Illuminated
Today
Waning Crescent
Aug 25
New
Sep 2
First Quarter
Sep 8
Full
Sep 15
Last Quarter

Today's Extremes

State Highs State Lows

Community

WunderPhotos

Upload Photos

1,745,658 photos uploaded!

Nearby

Snow Depth

Station Depth Elevation
No new snow has been reported.

Earthquake Activity

City Distance Mag. Time & Date
No recent earthquake activity has been reported nearby.
Minimum magnitude displayed is 2.5.

Coastal Water Temperatures

Place Temperature
Apalachicola, FL 86.0 °F
Panama City, FL 84.9 °F

Nearby Weather Stations